createdAt,value
2022-11-18T04:33:58.559Z,95780.58
2022-11-18T04:39:00.318Z,95780.58
2022-11-18T04:44:02.239Z,95760.41
2022-11-18T04:49:04.103Z,95760.41
2022-11-18T04:54:05.958Z,95784.17
2022-11-18T04:59:07.990Z,95784.17
2022-11-18T05:04:12.594Z,95771.13
2022-11-18T05:09:14.529Z,95777.28
2022-11-18T05:14:17.013Z,95777.28
2022-11-18T05:19:19.943Z,95754.65
2022-11-18T05:24:22.276Z,95754.65
2022-11-18T05:29:23.948Z,95747.97
2022-11-18T05:34:25.767Z,95747.97
2022-11-18T05:39:27.525Z,95753.64
2022-11-18T05:44:29.269Z,95753.64
2022-11-18T05:49:31.441Z,95756.2
2022-11-18T05:54:33.195Z,95756.2
2022-11-18T05:59:35.061Z,95753.91
2022-11-18T06:04:39.360Z,95753.91
2022-11-18T06:09:43.113Z,95748.91
2022-11-18T06:14:46.597Z,95748.91
2022-11-18T06:19:48.466Z,95756.63
2022-11-18T06:24:50.469Z,95758.5
2022-11-18T06:29:52.223Z,95758.5
2022-11-18T06:34:54.041Z,95764.25
2022-11-18T06:39:55.890Z,95764.25
2022-11-18T06:44:57.905Z,95766.34
2022-11-18T06:49:59.966Z,95766.34
2022-11-18T06:55:01.868Z,95773
2022-11-18T07:00:04.269Z,95773
2022-11-18T07:05:06.274Z,95781.08
2022-11-18T07:10:08.686Z,95781.08
2022-11-18T07:15:10.541Z,95774.42
2022-11-18T07:20:12.442Z,95774.42
2022-11-18T07:25:14.236Z,95786.5
2022-11-18T07:30:16.901Z,95786.5
2022-11-18T07:35:18.796Z,95770.08
2022-11-18T07:40:20.605Z,95770.08
2022-11-18T07:45:22.566Z,95738.81
2022-11-18T07:50:24.701Z,95726.34
2022-11-18T08:00:32.586Z,95723.61
2022-11-18T08:05:34.685Z,95723.61
2022-11-18T08:10:36.638Z,95689.65
2022-11-18T08:15:40.205Z,95689.65
2022-11-18T08:20:42.065Z,95698.13
2022-11-18T08:25:45.110Z,95698.13
2022-11-18T08:30:47.204Z,95710.41
2022-11-18T08:35:48.975Z,95710.41
2022-11-18T08:40:50.778Z,95722.07
2022-11-18T08:45:52.569Z,95722.07
2022-11-18T08:50:54.332Z,95724.48
2022-11-18T08:55:58.087Z,95724.48
2022-11-18T09:01:04.222Z,95709.03
2022-11-18T09:06:07.367Z,95709.66
2022-11-18T09:11:10.046Z,95709.66
2022-11-18T09:16:12.209Z,95716.06
2022-11-18T09:21:13.967Z,95716.06
2022-11-18T09:26:16.907Z,95716.23
2022-11-18T09:31:18.728Z,95716.23
2022-11-18T09:36:21.453Z,95679.61
2022-11-18T09:41:30.131Z,95679.61
2022-11-18T09:51:38.734Z,95670.86
2022-11-18T09:56:41.037Z,95676.28
2022-11-18T10:01:43.662Z,95676.28
2022-11-18T10:06:46.428Z,95651.55
2022-11-18T10:11:53.398Z,95651.55
2022-11-18T10:27:14.683Z,95617.09
2022-11-18T10:32:17.138Z,95621.94
2022-11-18T10:42:29.729Z,95620.13
2022-11-18T10:47:32.150Z,95620.13
2022-11-18T10:57:40.724Z,95627.83
2022-11-18T11:02:42.513Z,95622.88
2022-11-18T11:07:44.887Z,95622.88
2022-11-18T11:12:48.858Z,95621.99
2022-11-18T11:17:52.544Z,95621.99
2022-11-18T11:22:55.478Z,95625.48
2022-11-18T11:38:21.469Z,95617.38
2022-11-18T11:48:34.565Z,95620.5
2022-11-18T12:03:53.207Z,95625.89
2022-11-18T12:14:06.659Z,95614.38
2022-11-18T12:19:10.974Z,95621.41
2022-11-18T12:29:24.174Z,95609.61
2022-11-18T12:34:29.485Z,95609.61
2022-11-18T12:44:42.624Z,95580.77
2022-11-18T12:54:54.819Z,95575.43
2022-11-18T12:59:56.837Z,95575.43
2022-11-18T13:05:05.128Z,95585.98
2022-11-18T13:15:16.323Z,95594.9
2022-11-18T13:20:19.243Z,95594.9
2022-11-18T13:25:24.891Z,95612.11
2022-11-18T13:30:27.381Z,95612.11
2022-11-18T13:35:29.178Z,95620.56
2022-11-18T13:45:38.408Z,95622.83
2022-11-18T13:50:43.863Z,95622.83
2022-11-18T13:55:47.078Z,95617.43
2022-11-18T14:00:55.332Z,95612.48
2022-11-18T14:05:58.274Z,95612.48
2022-11-18T14:11:00.710Z,95603.3
2022-11-18T14:21:11.498Z,95604.89
2022-11-18T14:26:13.605Z,95604.89
2022-11-18T14:36:20.704Z,95621.89
2022-11-18T14:41:22.437Z,95627.14
2022-11-18T14:46:24.186Z,95627.14
2022-11-18T14:51:26.284Z,95629.73
2022-11-18T14:56:29.344Z,95629.73
2022-11-18T15:01:32.165Z,95622.26
2022-11-18T15:06:34.450Z,95622.26
2022-11-18T15:11:36.245Z,95612.2
2022-11-18T15:16:38.042Z,95607.91
2022-11-18T15:21:39.911Z,95607.91
2022-11-18T15:26:43.237Z,95610.94
2022-11-18T15:31:45.154Z,95610.94
2022-11-18T15:36:47.049Z,95610.36
2022-11-18T15:41:49.465Z,95610.36
2022-11-18T15:46:51.477Z,95622.58
2022-11-18T15:51:53.825Z,95622.58
2022-11-18T15:56:55.890Z,95623.05
2022-11-18T16:01:57.656Z,95623.05
2022-11-18T16:06:59.822Z,95628.91
2022-11-18T16:12:01.851Z,95628.91
2022-11-18T16:17:04.161Z,95635.88
2022-11-18T16:22:06.164Z,95635.88
2022-11-18T16:27:08.181Z,95642.28
2022-11-18T16:32:12.721Z,95642.28
2022-11-18T16:37:14.528Z,95644.14
2022-11-18T16:42:16.685Z,95644.98
2022-11-18T16:47:18.559Z,95644.98
2022-11-18T16:52:20.903Z,95650.63
2022-11-18T16:57:22.946Z,95650.63
2022-11-18T17:02:26.404Z,95661.61
2022-11-18T17:12:36.942Z,95665.08
2022-11-18T17:17:39.366Z,95665.08
2022-11-18T17:22:41.561Z,95670.59
2022-11-18T17:27:43.294Z,95670.59
2022-11-18T17:32:45.654Z,95675.95
2022-11-18T17:37:47.794Z,95675.95
2022-11-18T17:42:50.199Z,95680.77
2022-11-18T17:47:52.186Z,95680.77
2022-11-18T17:52:54.044Z,95692.05
2022-11-18T17:57:55.968Z,95698.48
2022-11-18T18:02:57.807Z,95698.48
2022-11-18T18:08:00.287Z,95712.13
2022-11-18T18:13:02.190Z,95712.13
2022-11-18T18:18:04.895Z,95715.34
2022-11-18T18:23:07.962Z,95715.34
2022-11-18T18:28:10.308Z,95723.39
2022-11-18T18:33:13.104Z,95723.39
2022-11-18T18:38:17.594Z,95729.49
2022-11-18T18:43:19.916Z,95729.49
2022-11-18T18:48:22.633Z,95746.78
2022-11-18T18:53:26.037Z,95746.78
2022-11-18T18:58:29.213Z,95759.05
2022-11-18T19:03:32.281Z,95759.05
2022-11-18T19:08:35.244Z,95775.62
2022-11-18T19:13:38.748Z,95781.25
2022-11-18T19:18:41.564Z,95781.25
2022-11-18T19:23:44.442Z,95790.75
2022-11-18T19:28:48.403Z,95790.75
2022-11-18T19:33:51.589Z,95806.34
2022-11-18T19:38:54.402Z,95806.34
2022-11-18T19:43:59.141Z,95816.88
2022-11-18T19:49:02.410Z,95816.88
2022-11-18T19:54:06.186Z,95838.28
2022-11-18T19:59:08.543Z,95838.28
2022-11-18T20:04:12.292Z,95841.05
2022-11-18T20:09:14.766Z,95841.05
2022-11-18T20:14:18.086Z,95870.95
2022-11-18T20:19:23.535Z,95870.95
2022-11-18T20:24:26.765Z,95874.86
2022-11-18T20:29:29.675Z,95874.86
2022-11-18T20:34:32.398Z,95902.1
2022-11-18T20:39:34.555Z,95914.61
2022-11-18T20:44:37.714Z,95914.61
2022-11-18T20:49:40.616Z,95914.95
2022-11-18T20:54:42.937Z,95914.95
2022-11-18T20:59:45.326Z,95937.3
2022-11-18T21:04:48.024Z,95937.3
2022-11-18T21:09:50.480Z,95962.48
2022-11-18T21:14:52.660Z,95962.48
2022-11-18T21:19:54.537Z,95981.8
2022-11-18T21:24:56.820Z,95981.8
2022-11-18T21:29:58.658Z,95995.34
2022-11-18T21:35:01.046Z,95995.34
2022-11-18T21:40:02.924Z,96013.47
2022-11-18T21:45:05.251Z,96013.47
2022-11-18T21:50:07.641Z,96013.47
2022-11-18T21:55:09.535Z,96013.47
2022-11-18T22:00:11.923Z,96013.47
2022-11-18T22:05:13.733Z,96013.47
2022-11-18T22:10:16.220Z,96013.47
2022-11-18T22:15:18.005Z,96013.47
2022-11-18T22:20:19.866Z,96013.47
2022-11-18T22:25:21.709Z,96013.47
2022-11-18T22:30:23.434Z,96013.47
2022-11-18T22:35:25.159Z,96013.47
